createdAt,value
2022-09-24T00:01:22.075Z,11.71
2022-09-24T00:03:55.656Z,11.72
2022-09-24T00:06:23.392Z,11.67
2022-09-24T00:08:54.043Z,11.65
2022-09-24T00:11:21.505Z,11.75
2022-09-24T00:13:49.275Z,11.88
2022-09-24T00:16:17.515Z,11.89
2022-09-24T00:18:44.282Z,11.78
2022-09-24T00:21:23.214Z,11.76
2022-09-24T00:23:55.062Z,11.77
2022-09-24T00:26:40.958Z,11.71
2022-09-24T00:29:08.623Z,11.66
2022-09-24T00:31:35.341Z,11.54
2022-09-24T00:34:02.041Z,11.52
2022-09-24T00:36:28.525Z,11.58
2022-09-24T00:38:57.962Z,11.54
2022-09-24T00:41:31.198Z,11.51
2022-09-24T00:43:58.743Z,11.52
2022-09-24T00:46:30.095Z,11.50
2022-09-24T00:49:16.534Z,11.59
2022-09-24T00:51:45.431Z,11.60
2022-09-24T00:54:17.164Z,11.57
2022-09-24T00:56:45.517Z,11.55
2022-09-24T00:59:16.824Z,11.55
2022-09-24T01:01:46.981Z,11.55
2022-09-24T01:04:16.097Z,11.51
2022-09-24T01:06:42.431Z,11.52
2022-09-24T01:09:09.380Z,11.54
2022-09-24T01:12:09.816Z,11.52
2022-09-24T01:14:42.194Z,11.55
2022-09-24T01:17:17.905Z,11.47
2022-09-24T01:19:56.107Z,11.45
2022-09-24T01:22:43.657Z,11.50
2022-09-24T01:25:47.396Z,11.51
2022-09-24T01:28:31.818Z,11.51
2022-09-24T01:31:03.707Z,11.53
2022-09-24T01:33:32.451Z,11.51
2022-09-24T01:36:06.334Z,11.51
2022-09-24T01:38:38.501Z,11.48
2022-09-24T01:41:07.708Z,11.49
2022-09-24T01:43:34.381Z,11.49
2022-09-24T01:46:04.108Z,11.50
2022-09-24T01:48:30.932Z,11.41
2022-09-24T01:51:08.419Z,11.40
2022-09-24T01:53:42.480Z,11.40
2022-09-24T01:56:15.906Z,11.38
2022-09-24T01:59:02.525Z,11.34
2022-09-24T02:01:37.365Z,11.33
2022-09-24T02:04:13.888Z,11.22
2022-09-24T02:06:47.401Z,11.25
2022-09-24T02:09:35.163Z,11.20
2022-09-24T02:12:12.130Z,11.16
2022-09-24T02:14:48.461Z,11.15
2022-09-24T02:17:15.127Z,11.11
2022-09-24T02:19:42.545Z,11.09
2022-09-24T02:22:12.586Z,11.11
2022-09-24T02:24:49.927Z,11.09
2022-09-24T02:27:17.964Z,11.10
2022-09-24T02:29:44.323Z,11.17
2022-09-24T02:32:14.327Z,11.16
2022-09-24T02:34:48.532Z,11.12
2022-09-24T02:37:16.328Z,11.03
2022-09-24T02:39:43.199Z,11.03
2022-09-24T02:42:12.125Z,11.03
2022-09-24T02:44:38.468Z,11.06
2022-09-24T02:47:07.443Z,11.11
2022-09-24T02:49:34.241Z,11.11
2022-09-24T02:52:00.838Z,11.09
2022-09-24T02:54:27.142Z,11.12
2022-09-24T02:56:53.928Z,11.15
2022-09-24T02:59:20.384Z,11.09
2022-09-24T03:01:47.219Z,11.12
2022-09-24T03:04:14.286Z,11.09
2022-09-24T03:06:40.558Z,11.06
2022-09-24T03:09:06.903Z,11.06
2022-09-24T03:11:33.892Z,11.07
2022-09-24T03:14:00.249Z,11.06
2022-09-24T03:16:27.288Z,11.06
2022-09-24T03:18:53.695Z,11.03
2022-09-24T03:21:22.219Z,11.03
2022-09-24T03:23:49.277Z,11.05
2022-09-24T03:26:17.431Z,11.13
2022-09-24T03:28:45.400Z,11.09
2022-09-24T03:31:12.356Z,11.09
2022-09-24T03:33:43.837Z,11.08
2022-09-24T03:36:16.165Z,11.02
2022-09-24T03:38:43.907Z,10.97
2022-09-24T03:41:12.086Z,11.01
2022-09-24T03:43:38.536Z,11.03
2022-09-24T03:46:08.791Z,11.04
2022-09-24T03:48:37.514Z,10.99
2022-09-24T03:51:09.750Z,10.92
2022-09-24T03:53:36.353Z,10.92
2022-09-24T03:56:04.133Z,10.89
2022-09-24T03:58:31.617Z,10.87
2022-09-24T04:00:58.439Z,10.89
2022-09-24T04:03:25.485Z,10.89
2022-09-24T04:05:52.005Z,10.86
2022-09-24T04:08:23.430Z,10.85
2022-09-24T04:10:50.851Z,10.89
2022-09-24T04:13:18.401Z,10.83
2022-09-24T04:15:45.292Z,10.84
2022-09-24T04:18:11.665Z,10.87
2022-09-24T04:20:38.116Z,10.82
2022-09-24T04:23:04.485Z,10.79
2022-09-24T04:25:32.201Z,10.80
2022-09-24T04:28:01.121Z,10.84
2022-09-24T04:30:28.743Z,10.87
2022-09-24T04:32:55.524Z,10.82
2022-09-24T04:35:23.804Z,10.84
2022-09-24T04:37:50.215Z,10.84
2022-09-24T04:40:17.234Z,10.84
2022-09-24T04:42:46.163Z,10.85
2022-09-24T04:45:13.802Z,10.80
2022-09-24T04:47:40.808Z,10.82
2022-09-24T04:50:09.747Z,10.83
2022-09-24T04:52:36.048Z,10.82
2022-09-24T04:55:02.795Z,10.87
2022-09-24T04:57:29.845Z,10.82
2022-09-24T04:59:56.151Z,10.83
2022-09-24T05:02:24.109Z,10.92
2022-09-24T05:04:50.520Z,10.92
2022-09-24T05:07:16.835Z,10.97
2022-09-24T05:09:43.213Z,10.97
2022-09-24T05:12:09.628Z,10.92
2022-09-24T05:14:35.959Z,10.87
2022-09-24T05:17:02.323Z,10.88
2022-09-24T05:19:28.666Z,10.86
2022-09-24T05:21:55.007Z,10.94
2022-09-24T05:24:21.377Z,10.94
2022-09-24T05:27:06.494Z,10.95
2022-09-24T05:29:32.843Z,10.92
2022-09-24T05:32:02.631Z,10.87
2022-09-24T05:34:29.637Z,10.91
2022-09-24T05:36:56.080Z,10.88
2022-09-24T05:39:22.396Z,10.95
2022-09-24T05:41:48.768Z,10.94
2022-09-24T05:44:15.059Z,11.00
2022-09-24T05:46:41.429Z,11.08
2022-09-24T05:49:07.905Z,11.05
2022-09-24T05:51:34.322Z,11.07
2022-09-24T05:54:00.690Z,11.08
2022-09-24T05:56:26.963Z,11.16
2022-09-24T05:58:53.343Z,11.15
2022-09-24T06:01:19.799Z,11.22
2022-09-24T06:03:46.148Z,11.22
2022-09-24T06:06:12.481Z,11.29
2022-09-24T06:08:38.844Z,11.38
2022-09-24T06:11:08.313Z,11.43
2022-09-24T06:13:35.206Z,11.45
2022-09-24T06:16:07.346Z,11.44
2022-09-24T06:18:36.238Z,11.44
2022-09-24T06:21:03.875Z,11.45
2022-09-24T06:23:31.201Z,11.57
2022-09-24T06:25:58.162Z,11.56
2022-09-24T06:28:25.408Z,11.53
2022-09-24T06:30:52.107Z,11.53
2022-09-24T06:33:20.018Z,11.50
2022-09-24T06:35:48.145Z,11.45
2022-09-24T06:38:16.758Z,11.43
2022-09-24T06:40:51.008Z,11.41
2022-09-24T06:43:20.421Z,11.55
2022-09-24T06:45:46.828Z,11.66
2022-09-24T06:48:14.690Z,11.58
2022-09-24T06:50:43.400Z,11.68
2022-09-24T06:53:11.199Z,11.72
2022-09-24T06:55:38.280Z,11.74
2022-09-24T06:58:06.975Z,11.71
2022-09-24T07:00:34.213Z,11.60
2022-09-24T07:03:00.685Z,11.69
2022-09-24T07:05:27.013Z,11.77
2022-09-24T07:07:53.381Z,11.74
2022-09-24T07:10:19.779Z,11.72
2022-09-24T07:12:46.168Z,11.66
2022-09-24T07:15:12.653Z,11.48
2022-09-24T07:17:39.014Z,11.36
2022-09-24T07:20:05.718Z,11.49
2022-09-24T07:22:32.069Z,11.53
2022-09-24T07:24:58.451Z,11.48
2022-09-24T07:27:25.293Z,11.40
2022-09-24T07:29:51.758Z,11.43
2022-09-24T07:32:18.071Z,11.38
2022-09-24T07:34:45.108Z,11.35
2022-09-24T07:37:11.900Z,11.41
2022-09-24T07:39:38.231Z,11.46
2022-09-24T07:42:05.674Z,11.51
2022-09-24T07:44:31.989Z,11.48
2022-09-24T07:46:58.397Z,11.55
2022-09-24T07:49:24.841Z,11.56
2022-09-24T07:51:51.238Z,11.43
2022-09-24T07:54:17.760Z,11.45
2022-09-24T07:56:44.160Z,11.43
2022-09-24T07:59:11.134Z,11.37
2022-09-24T08:01:37.821Z,11.31
2022-09-24T08:04:04.624Z,11.37
2022-09-24T08:06:38.337Z,11.41
2022-09-24T08:09:06.900Z,11.23
2022-09-24T08:11:33.535Z,11.33
2022-09-24T08:14:00.578Z,11.34
2022-09-24T08:16:27.108Z,11.32
2022-09-24T08:18:54.189Z,11.28
2022-09-24T08:21:21.044Z,11.26
2022-09-24T08:23:47.684Z,11.23
2022-09-24T08:26:14.481Z,11.21
2022-09-24T08:28:41.898Z,11.16
2022-09-24T08:31:11.842Z,11.16
2022-09-24T08:33:39.175Z,11.24
2022-09-24T08:36:08.893Z,11.23
2022-09-24T08:38:35.660Z,11.28
2022-09-24T08:41:21.086Z,11.27
2022-09-24T08:44:37.762Z,11.29
2022-09-24T08:47:23.143Z,11.30
2022-09-24T08:49:58.102Z,11.35
2022-09-24T08:52:30.434Z,11.31
2022-09-24T08:55:02.078Z,11.25
2022-09-24T08:57:28.783Z,11.29
2022-09-24T08:59:55.215Z,11.24
2022-09-24T09:02:46.436Z,11.29
2022-09-24T09:05:43.720Z,11.38
2022-09-24T09:09:01.754Z,11.26
2022-09-24T09:11:32.448Z,11.32
2022-09-24T09:14:04.241Z,11.25
2022-09-24T09:16:52.212Z,11.30
2022-09-24T09:19:23.283Z,11.40
2022-09-24T09:22:15.919Z,11.32
2022-09-24T09:24:49.433Z,11.48
2022-09-24T09:27:17.680Z,11.44
2022-09-24T09:29:51.392Z,11.46
2022-09-24T09:32:23.445Z,11.45
2022-09-24T09:35:19.417Z,11.44
2022-09-24T09:37:54.638Z,11.52
2022-09-24T09:41:03.028Z,11.68
2022-09-24T09:43:29.585Z,11.55
2022-09-24T09:46:15.443Z,11.66
2022-09-24T09:48:49.328Z,11.75
2022-09-24T09:51:22.561Z,11.68
2022-09-24T09:54:03.235Z,11.63
2022-09-24T09:56:38.221Z,11.71
2022-09-24T09:59:24.453Z,11.75
2022-09-24T10:01:56.148Z,11.81
2022-09-24T10:04:35.007Z,11.92
2022-09-24T10:07:15.834Z,12.05
2022-09-24T10:09:43.898Z,12.06
2022-09-24T10:12:24.072Z,12.12
2022-09-24T10:15:04.755Z,12.18
2022-09-24T10:17:38.916Z,11.95
2022-09-24T10:20:27.502Z,11.93
2022-09-24T10:22:59.245Z,12.00
2022-09-24T10:25:28.561Z,12.03
2022-09-24T10:28:18.014Z,12.01
2022-09-24T10:31:11.146Z,11.91
2022-09-24T10:33:40.443Z,11.90
2022-09-24T10:36:14.484Z,11.76
2022-09-24T10:38:41.060Z,11.76
2022-09-24T10:41:28.286Z,11.83
2022-09-24T10:43:56.377Z,11.63
2022-09-24T10:47:00.374Z,11.68
2022-09-24T10:49:34.903Z,11.71
2022-09-24T10:52:22.706Z,11.77
2022-09-24T10:55:02.430Z,11.72
2022-09-24T10:57:34.497Z,11.76
2022-09-24T11:00:12.914Z,11.82
2022-09-24T11:03:08.521Z,11.83
2022-09-24T11:05:45.053Z,11.83
2022-09-24T11:08:26.479Z,11.85
2022-09-24T11:11:04.378Z,11.82
2022-09-24T11:13:40.490Z,11.82
2022-09-24T11:16:25.690Z,11.79
2022-09-24T11:18:59.893Z,11.81
2022-09-24T11:21:34.241Z,11.81
2022-09-24T11:24:26.491Z,11.75
2022-09-24T11:27:15.949Z,11.84
2022-09-24T11:30:13.081Z,11.84
2022-09-24T11:33:09.936Z,11.92
2022-09-24T11:36:05.430Z,12.00
2022-09-24T11:39:07.127Z,12.12
2022-09-24T11:41:45.252Z,12.12
2022-09-24T11:44:54.696Z,12.04
2022-09-24T11:47:44.997Z,12.07
2022-09-24T11:50:35.564Z,12.09
2022-09-24T11:53:09.065Z,12.08
2022-09-24T11:55:53.583Z,12.01
2022-09-24T11:58:31.930Z,12.11
2022-09-24T12:01:09.671Z,12.12
2022-09-24T12:03:44.211Z,12.14
2022-09-24T12:06:15.016Z,12.03
2022-09-24T12:09:14.849Z,12.08
2022-09-24T12:11:51.540Z,12.22
2022-09-24T12:14:31.738Z,12.14
2022-09-24T12:17:06.239Z,12.07
2022-09-24T12:19:53.836Z,12.16
2022-09-24T12:22:22.061Z,12.16
2022-09-24T12:24:53.867Z,12.04
2022-09-24T12:27:36.975Z,12.05
2022-09-24T12:30:41.920Z,12.03
2022-09-24T12:33:29.665Z,12.06
2022-09-24T12:36:05.484Z,11.95
2022-09-24T12:38:40.666Z,11.94
2022-09-24T12:41:06.940Z,12.01
2022-09-24T12:43:52.680Z,12.12
2022-09-24T12:46:24.308Z,12.13
2022-09-24T12:48:52.475Z,12.22
2022-09-24T12:51:22.608Z,12.12
2022-09-24T12:54:18.686Z,12.09
2022-09-24T12:56:45.105Z,12.22
2022-09-24T12:59:28.190Z,12.05
2022-09-24T13:02:06.601Z,12.00
2022-09-24T13:04:32.997Z,12.10
2022-09-24T13:06:59.491Z,12.14
2022-09-24T13:09:40.448Z,12.21
2022-09-24T13:12:29.414Z,12.23
2022-09-24T13:15:04.190Z,12.19
2022-09-24T13:17:33.417Z,12.12
2022-09-24T13:20:05.260Z,12.06
2022-09-24T13:22:34.597Z,12.15
2022-09-24T13:25:10.327Z,12.19
2022-09-24T13:27:42.251Z,12.20
2022-09-24T13:30:08.727Z,12.22
2022-09-24T13:32:45.839Z,12.22
2022-09-24T13:35:21.989Z,12.23
2022-09-24T13:38:22.561Z,12.07
2022-09-24T13:40:56.579Z,12.15
2022-09-24T13:43:45.273Z,12.19
2022-09-24T13:46:16.577Z,12.25
2022-09-24T13:48:56.252Z,12.12
2022-09-24T13:51:27.799Z,12.07
2022-09-24T13:54:15.829Z,12.21
2022-09-24T13:56:43.690Z,12.26
2022-09-24T13:59:12.402Z,12.17
2022-09-24T14:01:42.296Z,12.13
2022-09-24T14:04:20.754Z,12.15
2022-09-24T14:06:51.561Z,12.09
2022-09-24T14:09:30.596Z,12.11
2022-09-24T14:12:03.006Z,12.21
2022-09-24T14:14:34.411Z,12.31
2022-09-24T14:17:13.834Z,12.41
2022-09-24T14:19:40.433Z,12.45
2022-09-24T14:22:16.708Z,12.50
2022-09-24T14:25:01.514Z,12.52
2022-09-24T14:27:30.241Z,12.53
2022-09-24T14:30:06.000Z,12.56
2022-09-24T14:32:36.813Z,12.59
2022-09-24T14:35:07.885Z,12.54
2022-09-24T14:37:38.223Z,12.66
2022-09-24T14:40:12.024Z,12.74
2022-09-24T14:42:52.444Z,12.56
2022-09-24T14:45:36.045Z,12.57
2022-09-24T14:48:05.268Z,12.47
2022-09-24T14:50:41.486Z,12.34
2022-09-24T14:53:20.882Z,12.38
2022-09-24T14:55:49.534Z,12.35
2022-09-24T14:58:28.729Z,12.26
2022-09-24T15:00:58.889Z,12.31
2022-09-24T15:03:39.891Z,12.27
2022-09-24T15:06:16.303Z,12.27
2022-09-24T15:08:42.772Z,12.41
2022-09-24T15:11:19.507Z,12.37
2022-09-24T15:13:45.826Z,12.42
2022-09-24T15:16:34.827Z,12.46
2022-09-24T15:19:07.242Z,12.52
2022-09-24T15:21:34.513Z,12.62
2022-09-24T15:24:01.055Z,12.58
2022-09-24T15:26:31.723Z,12.60
2022-09-24T15:28:59.117Z,12.65
2022-09-24T15:31:25.788Z,12.63
2022-09-24T15:33:52.978Z,12.65
2022-09-24T15:36:21.036Z,12.64
2022-09-24T15:38:49.511Z,12.69
2022-09-24T15:41:15.906Z,12.68
2022-09-24T15:43:42.225Z,12.68
2022-09-24T15:46:08.636Z,12.67
2022-09-24T15:48:35.057Z,12.69
2022-09-24T15:51:07.225Z,12.65
2022-09-24T15:53:35.550Z,12.61
2022-09-24T15:56:03.080Z,12.60
2022-09-24T15:58:29.675Z,12.69
2022-09-24T16:00:56.092Z,12.67
2022-09-24T16:03:27.963Z,12.67
2022-09-24T16:05:55.489Z,12.61
2022-09-24T16:08:22.645Z,12.66
2022-09-24T16:10:49.330Z,12.57
2022-09-24T16:13:16.227Z,12.61
2022-09-24T16:15:42.759Z,12.60
2022-09-24T16:18:13.467Z,12.58
2022-09-24T16:20:40.677Z,12.68
2022-09-24T16:23:13.949Z,12.57
2022-09-24T16:26:01.379Z,12.60
2022-09-24T16:28:28.647Z,12.66
2022-09-24T16:30:55.141Z,12.65
2022-09-24T16:33:22.171Z,12.60
2022-09-24T16:35:48.602Z,12.64
2022-09-24T16:38:20.292Z,12.62
2022-09-24T16:40:49.053Z,12.62
2022-09-24T16:43:15.902Z,12.66
2022-09-24T16:45:42.202Z,12.69
2022-09-24T16:48:11.328Z,12.72
2022-09-24T16:50:37.630Z,12.78
2022-09-24T16:53:04.001Z,12.74
2022-09-24T16:55:30.322Z,12.71
2022-09-24T16:57:57.121Z,12.73
2022-09-24T17:00:23.439Z,12.69
2022-09-24T17:02:49.805Z,12.71
2022-09-24T17:05:16.227Z,12.67
2022-09-24T17:07:42.562Z,12.69
2022-09-24T17:10:13.513Z,12.68
2022-09-24T17:12:43.771Z,12.72
2022-09-24T17:15:12.844Z,12.64
2022-09-24T17:17:49.157Z,12.61
2022-09-24T17:20:16.978Z,12.74
2022-09-24T17:22:43.425Z,12.67
2022-09-24T17:25:09.869Z,12.63
2022-09-24T17:27:36.207Z,12.61
2022-09-24T17:30:03.701Z,12.52
2022-09-24T17:32:30.180Z,12.60
2022-09-24T17:34:56.481Z,12.53
2022-09-24T17:37:23.298Z,12.51
2022-09-24T17:39:49.688Z,12.51
2022-09-24T17:42:16.175Z,12.52
2022-09-24T17:44:42.467Z,12.46
2022-09-24T17:47:08.970Z,12.53
2022-09-24T17:49:35.377Z,12.57
2022-09-24T17:52:03.547Z,12.53
2022-09-24T17:54:29.948Z,12.51
2022-09-24T17:56:56.330Z,12.57
2022-09-24T17:59:26.686Z,12.61
2022-09-24T18:01:54.131Z,12.58
2022-09-24T18:04:21.217Z,12.60
2022-09-24T18:06:49.023Z,12.67
2022-09-24T18:09:17.101Z,12.58
2022-09-24T18:11:46.462Z,12.59
2022-09-24T18:14:16.791Z,12.65
2022-09-24T18:16:43.622Z,12.64
2022-09-24T18:19:11.944Z,12.58
2022-09-24T18:21:38.647Z,12.53
2022-09-24T18:24:05.319Z,12.48
2022-09-24T18:26:34.934Z,12.45
2022-09-24T18:29:05.650Z,12.41
2022-09-24T18:31:32.247Z,12.35
2022-09-24T18:34:05.616Z,12.42
2022-09-24T18:36:39.779Z,12.49
2022-09-24T18:39:11.010Z,12.47
2022-09-24T18:41:37.376Z,12.45
2022-09-24T18:44:04.379Z,12.42
2022-09-24T18:46:32.590Z,12.38
2022-09-24T18:49:00.639Z,12.32
2022-09-24T18:51:35.955Z,12.37
2022-09-24T18:54:05.990Z,12.46
2022-09-24T18:56:33.281Z,12.53
2022-09-24T18:59:10.719Z,12.48
2022-09-24T19:01:38.175Z,12.47
2022-09-24T19:04:05.461Z,12.43
2022-09-24T19:06:34.829Z,12.38
2022-09-24T19:09:01.255Z,12.46
2022-09-24T19:11:30.406Z,12.47
2022-09-24T19:13:57.201Z,12.54
2022-09-24T19:16:24.374Z,12.46
2022-09-24T19:18:52.030Z,12.36
2022-09-24T19:21:19.095Z,12.39
2022-09-24T19:23:50.480Z,12.32
2022-09-24T19:26:20.744Z,12.36
2022-09-24T19:28:50.770Z,12.41
2022-09-24T19:31:21.922Z,12.40
2022-09-24T19:33:49.886Z,12.42
2022-09-24T19:36:17.221Z,12.37
2022-09-24T19:38:44.201Z,12.32
2022-09-24T19:41:21.368Z,12.32
2022-09-24T19:43:49.729Z,12.30
2022-09-24T19:46:19.358Z,12.18
2022-09-24T19:48:48.544Z,12.03
2022-09-24T19:51:17.328Z,11.91
2022-09-24T19:53:47.609Z,11.85
2022-09-24T19:56:16.169Z,11.89
2022-09-24T19:58:46.381Z,11.84
2022-09-24T20:01:17.077Z,11.91
2022-09-24T20:03:44.383Z,11.91
2022-09-24T20:06:15.010Z,11.86
2022-09-24T20:08:41.463Z,11.86
2022-09-24T20:11:10.744Z,11.90
2022-09-24T20:13:38.536Z,11.90
2022-09-24T20:16:05.190Z,11.92
2022-09-24T20:18:32.888Z,11.96
2022-09-24T20:21:05.042Z,12.08
2022-09-24T20:23:31.841Z,12.08
2022-09-24T20:26:16.849Z,11.97
2022-09-24T20:28:43.229Z,12.02
2022-09-24T20:31:11.628Z,11.92
2022-09-24T20:33:40.969Z,11.91
2022-09-24T20:36:14.942Z,11.90
2022-09-24T20:38:43.784Z,12.02
2022-09-24T20:41:12.785Z,11.95
2022-09-24T20:43:43.419Z,11.88
2022-09-24T20:46:23.806Z,11.82
2022-09-24T20:48:51.442Z,11.81
2022-09-24T20:51:20.604Z,11.78
2022-09-24T20:53:48.471Z,11.83
2022-09-24T20:56:16.253Z,11.84
2022-09-24T20:58:42.770Z,11.74
2022-09-24T21:01:10.814Z,11.68
2022-09-24T21:03:44.277Z,11.73
2022-09-24T21:06:12.022Z,11.83
2022-09-24T21:08:40.746Z,11.78
2022-09-24T21:11:09.537Z,11.77
2022-09-24T21:13:41.426Z,11.75
2022-09-24T21:16:09.392Z,11.80
2022-09-24T21:18:40.121Z,11.89
2022-09-24T21:21:11.134Z,11.85
2022-09-24T21:23:39.481Z,11.73
2022-09-24T21:26:18.320Z,11.80
2022-09-24T21:28:48.826Z,11.80
2022-09-24T21:31:17.570Z,11.83
2022-09-24T21:33:48.917Z,11.78
2022-09-24T21:36:19.219Z,11.77
2022-09-24T21:38:55.868Z,11.78
2022-09-24T21:41:37.455Z,11.95
2022-09-24T21:44:05.828Z,12.02
2022-09-24T21:46:33.357Z,11.88
2022-09-24T21:49:00.896Z,11.90
2022-09-24T21:51:29.920Z,11.88
2022-09-24T21:54:01.568Z,11.95
2022-09-24T21:56:29.423Z,12.05
2022-09-24T21:58:56.212Z,11.88
2022-09-24T22:01:29.021Z,11.88
2022-09-24T22:03:58.404Z,12.01
2022-09-24T22:06:29.632Z,11.94
2022-09-24T22:08:58.639Z,11.91
2022-09-24T22:11:27.842Z,11.95
2022-09-24T22:14:03.732Z,12.00
2022-09-24T22:16:36.015Z,12.05
2022-09-24T22:19:03.967Z,11.98
2022-09-24T22:21:31.286Z,12.02
2022-09-24T22:23:58.411Z,11.95
2022-09-24T22:26:26.131Z,11.96
2022-09-24T22:28:53.732Z,12.01
2022-09-24T22:31:20.247Z,12.03
2022-09-24T22:34:05.360Z,11.92
2022-09-24T22:36:33.130Z,11.85
2022-09-24T22:39:00.833Z,11.86
2022-09-24T22:41:29.546Z,11.92
2022-09-24T22:43:57.565Z,11.93
2022-09-24T22:46:26.892Z,11.98
2022-09-24T22:48:54.851Z,12.05
2022-09-24T22:51:21.737Z,11.98
2022-09-24T22:53:48.269Z,12.01
2022-09-24T22:56:17.936Z,11.92
2022-09-24T22:58:45.520Z,11.89
2022-09-24T23:01:15.872Z,11.86
2022-09-24T23:03:43.193Z,11.64
2022-09-24T23:06:11.837Z,11.67
2022-09-24T23:08:39.179Z,11.73
2022-09-24T23:11:07.955Z,11.73
2022-09-24T23:13:34.363Z,11.74
2022-09-24T23:16:14.750Z,11.88
2022-09-24T23:18:43.191Z,11.89
2022-09-24T23:21:12.648Z,11.84
2022-09-24T23:23:38.960Z,11.83
2022-09-24T23:26:17.705Z,11.85
2022-09-24T23:28:45.431Z,11.86
2022-09-24T23:31:14.212Z,11.82
2022-09-24T23:33:42.040Z,11.84
2022-09-24T23:36:11.050Z,11.84
2022-09-24T23:38:37.911Z,11.81
2022-09-24T23:41:05.515Z,11.82
2022-09-24T23:43:32.617Z,11.98
2022-09-24T23:45:59.013Z,11.93
2022-09-24T23:48:25.755Z,11.84
2022-09-24T23:50:52.318Z,11.72
2022-09-24T23:53:19.462Z,11.82
2022-09-24T23:55:47.792Z,11.89
2022-09-24T23:58:15.695Z,11.88
